Estación Meteorológica Peña el Pijo (Robertgarden) [ 02/03/23 03:44:17 CET ]

Fecha Hora Presion(HPa) Temp (°C) Humedad % Rocio (°C) Viento ( m/s) Direccion Lluvia 1Hora(mm) Lluvia 24H(mm) LLuvia Total(mm)
2012-Jan-12 01:01:14 1019.900 -4.2 82 -6.8         151.25
2012-Jan-12 02:01:40 1019.600 -4.8 83 -7.2         151.25
2012-Jan-12 03:01:46 1019.500 -5.5 84 -7.8         151.25
2012-Jan-12 04:01:44 1019.400 -5.5 84 -7.8         151.25
2012-Jan-12 05:01:49 1019.000 -6.1 84 -8.4         151.25
2012-Jan-12 06:01:45 1018.800 -6.3 84 -8.6         151.25
2012-Jan-12 07:01:14 1019.000 -6.1 85 -8.2         151.25
2012-Jan-12 08:01:13 1019.300 -6.6 84 -8.9         151.25
2012-Jan-12 09:01:13 1019.300 -6.1 86 -8.1         151.25
2012-Jan-12 10:01:18 1019.600 -1.6 87 -3.5         151.25
2012-Jan-12 11:01:14 1019.800 4.1 71 -0.7         151.25
2012-Jan-12 12:01:14 1019.200 7.5 62 0.7         151.25
2012-Jan-12 13:01:17 1017.900 10.1 55 1.4         151.25
2012-Jan-12 14:01:13 1017.000 11.7 48 1.0         151.25
2012-Jan-12 15:01:19 1016.700 12.1 47 1.1         151.25
2012-Jan-12 16:01:17 1017.100 10.1 52 0.7         151.25
2012-Jan-12 17:01:14 1017.000 8.5 58 0.7         151.25
2012-Jan-12 18:01:13 1017.400 7.2 62 0.4         151.25
2012-Jan-12 19:01:15 1017.600 4.4 68 -1.0         151.25
2012-Jan-12 20:01:15 1017.500 2.9 73 -1.5         151.25
2012-Jan-12 21:01:15 1017.500 1.9 77 -1.7         151.25
2012-Jan-12 22:01:15 1017.900 0.9 79 -2.4         151.25
2012-Jan-12 23:01:14 1017.600 0.3 80 -2.7         151.25

Temperatura Máxima:12°    Temperatura Mínima:-6°
Presión Máxima:1019.900 Hpa    Presión Mínima:1016.700 Hpa


Volver